createdAt,value
2019-05-10T00:02:12.663Z,13.5
2019-05-10T00:17:21.496Z,13.5
2019-05-10T00:32:43.714Z,13.4
2019-05-10T00:47:59.173Z,13.3
2019-05-10T01:03:14.679Z,13
2019-05-10T01:18:16.260Z,12.9
2019-05-10T01:33:45.119Z,12.7
2019-05-10T01:49:00.239Z,12.4
2019-05-10T02:04:17.499Z,12.3
2019-05-10T02:19:30.396Z,12.2
2019-05-10T02:34:39.217Z,11.9
2019-05-10T02:50:00.224Z,11.9
2019-05-10T03:05:15.082Z,11.8
2019-05-10T03:20:29.996Z,11.9
2019-05-10T03:35:32.246Z,11.9
2019-05-10T03:50:59.813Z,11.7
2019-05-10T04:06:14.677Z,11.7
2019-05-10T04:21:29.678Z,11.8
2019-05-10T04:36:44.363Z,11.9
2019-05-10T04:51:53.998Z,12.1
2019-05-10T05:07:14.563Z,12.3
2019-05-10T05:22:29.619Z,12.4
2019-05-10T05:37:44.850Z,12.6
2019-05-10T05:52:49.277Z,12.9
2019-05-10T06:08:22.665Z,12.9
2019-05-10T06:23:34.972Z,13.1
2019-05-10T06:38:46.337Z,13.4
2019-05-10T06:54:02.404Z,13.4
2019-05-10T07:09:15.782Z,13.2
2019-05-10T07:24:32.741Z,13.4
2019-05-10T07:39:48.317Z,13.4
2019-05-10T07:55:03.796Z,13.2
2019-05-10T08:10:10.867Z,13
2019-05-10T08:25:36.175Z,13.3
2019-05-10T08:40:52.032Z,13.6
2019-05-10T08:56:07.476Z,13.9
2019-05-10T09:11:23.087Z,14.7
2019-05-10T09:26:37.161Z,15.6
2019-05-10T09:41:54.655Z,15.9
2019-05-10T09:57:11.488Z,16.8
2019-05-10T10:12:28.961Z,16.5
2019-05-10T10:27:39.493Z,16
2019-05-10T10:43:01.922Z,16.5
2019-05-10T10:58:19.039Z,16.9
2019-05-10T11:13:44.785Z,16.3
2019-05-10T11:29:41.771Z,16
2019-05-10T11:45:06.579Z,17
2019-05-10T12:00:28.296Z,17.6
2019-05-10T12:15:42.836Z,17.2
2019-05-10T12:30:58.195Z,17
2019-05-10T12:46:12.641Z,18.1
2019-05-10T13:01:33.241Z,17.6
2019-05-10T13:16:50.650Z,19.1
2019-05-10T13:32:09.108Z,19.6
2019-05-10T13:47:16.039Z,19.6
2019-05-10T14:02:45.759Z,20
2019-05-10T14:18:04.636Z,20
2019-05-10T14:33:23.679Z,20
2019-05-10T14:48:42.315Z,19.7
2019-05-10T15:03:52.479Z,20.2
2019-05-10T15:19:19.879Z,19.9
2019-05-10T15:34:38.439Z,19.7
2019-05-10T15:49:59.844Z,19.2
2019-05-10T16:05:23.751Z,18.4
2019-05-10T16:21:29.277Z,18.6
2019-05-10T16:36:46.809Z,16.8
2019-05-10T16:52:03.356Z,15.7
2019-05-10T17:07:20.622Z,16.2
2019-05-10T17:22:29.001Z,17
2019-05-10T17:37:54.688Z,17.3
2019-05-10T17:53:12.803Z,17.3
2019-05-10T18:08:30.947Z,17.2
2019-05-10T18:23:52.499Z,16.7
2019-05-10T18:39:08.896Z,16.4
2019-05-10T18:54:21.976Z,15.6
2019-05-10T19:09:38.235Z,15.3
2019-05-10T19:24:56.807Z,14.9
2019-05-10T19:40:10.466Z,14.6
2019-05-10T19:55:25.805Z,14.4
2019-05-10T20:10:42.121Z,14
2019-05-10T20:25:59.333Z,13.5
2019-05-10T20:41:13.128Z,13.1
2019-05-10T20:56:20.960Z,12.8
2019-05-10T21:11:43.553Z,12.6
2019-05-10T21:26:58.886Z,13.2
2019-05-10T21:42:14.043Z,12.6
2019-05-10T21:57:29.100Z,12.2
2019-05-10T22:12:43.252Z,12.2
2019-05-10T22:27:59.038Z,12
2019-05-10T22:43:14.101Z,12
2019-05-10T22:58:28.896Z,12
2019-05-10T23:13:36.374Z,12.2
2019-05-10T23:28:58.875Z,12.4
2019-05-10T23:44:13.937Z,12.3
2019-05-10T23:59:29.009Z,12.3
